sensor_id;sensor_type;location;lat;lon;timestamp;temperature;humidity
2749;DHT22;1382;52.142;11.618;2023-12-20T00:00:58;11.30;60.80
2749;DHT22;1382;52.142;11.618;2023-12-20T00:03:26;11.30;60.80
2749;DHT22;1382;52.142;11.618;2023-12-20T00:05:53;11.30;60.60
2749;DHT22;1382;52.142;11.618;2023-12-20T00:08:20;11.30;60.80
2749;DHT22;1382;52.142;11.618;2023-12-20T00:10:46;11.30;61.00
2749;DHT22;1382;52.142;11.618;2023-12-20T00:13:13;11.30;60.80
2749;DHT22;1382;52.142;11.618;2023-12-20T00:15:40;11.30;60.90
2749;DHT22;1382;52.142;11.618;2023-12-20T00:18:07;11.30;61.00
2749;DHT22;1382;52.142;11.618;2023-12-20T00:20:35;11.30;61.10
2749;DHT22;1382;52.142;11.618;2023-12-20T00:23:03;11.30;61.20
2749;DHT22;1382;52.142;11.618;2023-12-20T00:25:30;11.30;61.20
2749;DHT22;1382;52.142;11.618;2023-12-20T00:27:56;11.40;61.40
2749;DHT22;1382;52.142;11.618;2023-12-20T00:30:23;11.20;61.00
2749;DHT22;1382;52.142;11.618;2023-12-20T00:32:50;11.40;61.50
2749;DHT22;1382;52.142;11.618;2023-12-20T00:35:18;11.20;61.40
2749;DHT22;1382;52.142;11.618;2023-12-20T00:37:46;11.20;61.20
2749;DHT22;1382;52.142;11.618;2023-12-20T00:40:16;11.20;61.40
2749;DHT22;1382;52.142;11.618;2023-12-20T00:42:44;11.20;61.10
2749;DHT22;1382;52.142;11.618;2023-12-20T00:45:11;11.20;61.00
2749;DHT22;1382;52.142;11.618;2023-12-20T00:47:38;11.20;61.20
2749;DHT22;1382;52.142;11.618;2023-12-20T00:50:06;11.20;61.10
2749;DHT22;1382;52.142;11.618;2023-12-20T00:52:33;11.20;61.30
2749;DHT22;1382;52.142;11.618;2023-12-20T00:55:01;11.20;61.30
2749;DHT22;1382;52.142;11.618;2023-12-20T00:57:28;11.20;61.50
2749;DHT22;1382;52.142;11.618;2023-12-20T00:59:55;11.20;61.10
2749;DHT22;1382;52.142;11.618;2023-12-20T01:02:21;11.20;61.20
2749;DHT22;1382;52.142;11.618;2023-12-20T01:04:48;11.10;61.30
2749;DHT22;1382;52.142;11.618;2023-12-20T01:07:16;11.20;61.50
2749;DHT22;1382;52.142;11.618;2023-12-20T01:09:43;11.20;61.60
2749;DHT22;1382;52.142;11.618;2023-12-20T01:12:12;11.20;61.40
2749;DHT22;1382;52.142;11.618;2023-12-20T01:14:39;11.10;61.30
2749;DHT22;1382;52.142;11.618;2023-12-20T01:17:05;11.10;61.70
2749;DHT22;1382;52.142;11.618;2023-12-20T01:19:32;11.10;61.40
2749;DHT22;1382;52.142;11.618;2023-12-20T01:21:59;11.10;61.50
2749;DHT22;1382;52.142;11.618;2023-12-20T01:24:26;11.10;61.70
2749;DHT22;1382;52.142;11.618;2023-12-20T01:26:53;11.10;61.60
2749;DHT22;1382;52.142;11.618;2023-12-20T01:29:22;11.10;61.60
2749;DHT22;1382;52.142;11.618;2023-12-20T01:31:49;11.10;61.60
2749;DHT22;1382;52.142;11.618;2023-12-20T01:34:16;11.20;61.60
2749;DHT22;1382;52.142;11.618;2023-12-20T01:36:43;11.20;61.40
2749;DHT22;1382;52.142;11.618;2023-12-20T01:39:09;11.10;61.60
2749;DHT22;1382;52.142;11.618;2023-12-20T01:41:50;11.20;62.30
2749;DHT22;1382;52.142;11.618;2023-12-20T01:44:17;11.10;62.50
2749;DHT22;1382;52.142;11.618;2023-12-20T01:46:46;11.10;62.90
2749;DHT22;1382;52.142;11.618;2023-12-20T01:49:13;11.10;63.00
2749;DHT22;1382;52.142;11.618;2023-12-20T01:51:41;11.10;63.40
2749;DHT22;1382;52.142;11.618;2023-12-20T01:54:08;11.10;63.60
2749;DHT22;1382;52.142;11.618;2023-12-20T01:56:36;11.10;63.80
2749;DHT22;1382;52.142;11.618;2023-12-20T01:59:03;11.10;63.60
2749;DHT22;1382;52.142;11.618;2023-12-20T02:01:30;11.00;63.40
2749;DHT22;1382;52.142;11.618;2023-12-20T02:03:59;11.00;63.20
2749;DHT22;1382;52.142;11.618;2023-12-20T02:06:29;10.90;62.70
2749;DHT22;1382;52.142;11.618;2023-12-20T02:08:57;10.80;62.80
2749;DHT22;1382;52.142;11.618;2023-12-20T02:11:24;10.70;62.70
2749;DHT22;1382;52.142;11.618;2023-12-20T02:13:51;10.70;62.50
2749;DHT22;1382;52.142;11.618;2023-12-20T02:16:18;10.70;62.40
2749;DHT22;1382;52.142;11.618;2023-12-20T02:18:45;10.70;62.20
2749;DHT22;1382;52.142;11.618;2023-12-20T02:21:14;10.70;62.00
2749;DHT22;1382;52.142;11.618;2023-12-20T02:23:42;10.70;61.80
2749;DHT22;1382;52.142;11.618;2023-12-20T02:26:09;10.80;61.70
2749;DHT22;1382;52.142;11.618;2023-12-20T02:28:37;10.80;61.60
2749;DHT22;1382;52.142;11.618;2023-12-20T02:31:04;10.80;61.50
2749;DHT22;1382;52.142;11.618;2023-12-20T02:33:30;10.80;61.30
2749;DHT22;1382;52.142;11.618;2023-12-20T02:35:57;10.80;61.30
2749;DHT22;1382;52.142;11.618;2023-12-20T02:38:24;10.80;61.20
2749;DHT22;1382;52.142;11.618;2023-12-20T02:40:52;10.80;61.30
2749;DHT22;1382;52.142;11.618;2023-12-20T02:43:19;10.70;61.30
2749;DHT22;1382;52.142;11.618;2023-12-20T02:45:46;10.70;61.40
2749;DHT22;1382;52.142;11.618;2023-12-20T02:48:13;10.70;61.60
2749;DHT22;1382;52.142;11.618;2023-12-20T02:50:39;10.60;61.60
2749;DHT22;1382;52.142;11.618;2023-12-20T02:53:06;10.60;61.70
2749;DHT22;1382;52.142;11.618;2023-12-20T02:55:33;10.60;61.80
2749;DHT22;1382;52.142;11.618;2023-12-20T02:58:01;10.50;61.70
2749;DHT22;1382;52.142;11.618;2023-12-20T03:00:28;10.50;61.70
2749;DHT22;1382;52.142;11.618;2023-12-20T03:02:55;10.50;61.50
2749;DHT22;1382;52.142;11.618;2023-12-20T03:05:22;10.50;61.40
2749;DHT22;1382;52.142;11.618;2023-12-20T03:07:49;10.50;61.50
2749;DHT22;1382;52.142;11.618;2023-12-20T03:10:15;10.50;61.40
2749;DHT22;1382;52.142;11.618;2023-12-20T03:12:52;10.50;61.30
2749;DHT22;1382;52.142;11.618;2023-12-20T03:15:20;10.40;61.50
2749;DHT22;1382;52.142;11.618;2023-12-20T03:17:47;10.40;61.60
2749;DHT22;1382;52.142;11.618;2023-12-20T03:20:14;10.50;61.70
2749;DHT22;1382;52.142;11.618;2023-12-20T03:22:41;10.30;61.60
2749;DHT22;1382;52.142;11.618;2023-12-20T03:25:08;10.30;61.60
2749;DHT22;1382;52.142;11.618;2023-12-20T03:27:37;10.50;61.90
2749;DHT22;1382;52.142;11.618;2023-12-20T03:30:05;10.30;61.60
2749;DHT22;1382;52.142;11.618;2023-12-20T03:32:33;10.30;61.50
2749;DHT22;1382;52.142;11.618;2023-12-20T03:35:01;10.80;62.00
2749;DHT22;1382;52.142;11.618;2023-12-20T03:37:28;10.30;61.50
2749;DHT22;1382;52.142;11.618;2023-12-20T03:39:56;10.30;61.40
2749;DHT22;1382;52.142;11.618;2023-12-20T03:42:23;10.30;61.50
2749;DHT22;1382;52.142;11.618;2023-12-20T03:44:49;10.30;61.40
2749;DHT22;1382;52.142;11.618;2023-12-20T03:47:16;10.20;61.40
2749;DHT22;1382;52.142;11.618;2023-12-20T03:49:44;10.30;61.40
2749;DHT22;1382;52.142;11.618;2023-12-20T03:52:12;10.20;61.30
2749;DHT22;1382;52.142;11.618;2023-12-20T03:54:39;10.20;61.20
2749;DHT22;1382;52.142;11.618;2023-12-20T03:57:06;10.20;61.20
2749;DHT22;1382;52.142;11.618;2023-12-20T03:59:34;10.10;61.10
2749;DHT22;1382;52.142;11.618;2023-12-20T04:02:01;10.10;61.80
2749;DHT22;1382;52.142;11.618;2023-12-20T04:04:28;10.10;61.00
2749;DHT22;1382;52.142;11.618;2023-12-20T04:06:56;10.10;60.90
2749;DHT22;1382;52.142;11.618;2023-12-20T04:09:25;10.10;60.80
2749;DHT22;1382;52.142;11.618;2023-12-20T04:11:52;10.10;60.70
2749;DHT22;1382;52.142;11.618;2023-12-20T04:14:19;10.10;60.60
2749;DHT22;1382;52.142;11.618;2023-12-20T04:16:46;10.00;60.30
2749;DHT22;1382;52.142;11.618;2023-12-20T04:19:16;10.00;60.40
2749;DHT22;1382;52.142;11.618;2023-12-20T04:21:43;10.00;60.30
2749;DHT22;1382;52.142;11.618;2023-12-20T04:24:11;10.00;60.30
2749;DHT22;1382;52.142;11.618;2023-12-20T04:26:38;10.00;60.10
2749;DHT22;1382;52.142;11.618;2023-12-20T04:29:05;10.00;60.10
2749;DHT22;1382;52.142;11.618;2023-12-20T04:31:32;10.00;59.90
2749;DHT22;1382;52.142;11.618;2023-12-20T04:33:59;10.00;59.90
2749;DHT22;1382;52.142;11.618;2023-12-20T04:36:25;9.90;60.90
2749;DHT22;1382;52.142;11.618;2023-12-20T04:38:53;9.90;61.00
2749;DHT22;1382;52.142;11.618;2023-12-20T04:41:21;9.90;60.80
2749;DHT22;1382;52.142;11.618;2023-12-20T04:43:48;9.90;60.70
2749;DHT22;1382;52.142;11.618;2023-12-20T04:46:15;9.90;61.00
2749;DHT22;1382;52.142;11.618;2023-12-20T04:48:42;9.90;60.70
2749;DHT22;1382;52.142;11.618;2023-12-20T04:51:09;9.90;60.70
2749;DHT22;1382;52.142;11.618;2023-12-20T04:53:35;9.90;60.50
2749;DHT22;1382;52.142;11.618;2023-12-20T04:56:02;9.90;60.50
2749;DHT22;1382;52.142;11.618;2023-12-20T04:58:31;9.90;60.50
2749;DHT22;1382;52.142;11.618;2023-12-20T05:00:58;9.90;60.50
2749;DHT22;1382;52.142;11.618;2023-12-20T05:03:25;9.90;60.50
2749;DHT22;1382;52.142;11.618;2023-12-20T05:05:52;9.90;60.30
2749;DHT22;1382;52.142;11.618;2023-12-20T05:08:19;9.90;60.30
2749;DHT22;1382;52.142;11.618;2023-12-20T05:10:46;9.80;60.20
2749;DHT22;1382;52.142;11.618;2023-12-20T05:13:13;9.80;60.80
2749;DHT22;1382;52.142;11.618;2023-12-20T05:15:41;9.80;60.10
2749;DHT22;1382;52.142;11.618;2023-12-20T05:18:08;9.80;60.10
2749;DHT22;1382;52.142;11.618;2023-12-20T05:20:35;9.80;60.00
2749;DHT22;1382;52.142;11.618;2023-12-20T05:23:01;9.90;60.10
2749;DHT22;1382;52.142;11.618;2023-12-20T05:25:29;9.80;60.00
2749;DHT22;1382;52.142;11.618;2023-12-20T05:27:56;9.80;59.90
2749;DHT22;1382;52.142;11.618;2023-12-20T05:30:23;9.70;59.80
2749;DHT22;1382;52.142;11.618;2023-12-20T05:32:51;9.70;59.80
2749;DHT22;1382;52.142;11.618;2023-12-20T05:35:18;9.70;59.80
2749;DHT22;1382;52.142;11.618;2023-12-20T05:37:45;9.70;59.80
2749;DHT22;1382;52.142;11.618;2023-12-20T05:40:12;9.60;59.80
2749;DHT22;1382;52.142;11.618;2023-12-20T05:42:39;9.60;60.00
2749;DHT22;1382;52.142;11.618;2023-12-20T05:45:07;9.60;60.20
2749;DHT22;1382;52.142;11.618;2023-12-20T05:47:34;9.50;60.10
2749;DHT22;1382;52.142;11.618;2023-12-20T05:50:02;9.50;60.20
2749;DHT22;1382;52.142;11.618;2023-12-20T05:52:29;9.50;60.30
2749;DHT22;1382;52.142;11.618;2023-12-20T05:54:56;9.50;60.40
2749;DHT22;1382;52.142;11.618;2023-12-20T05:57:23;9.50;60.50
2749;DHT22;1382;52.142;11.618;2023-12-20T05:59:49;9.50;60.60
2749;DHT22;1382;52.142;11.618;2023-12-20T06:02:16;9.50;60.70
2749;DHT22;1382;52.142;11.618;2023-12-20T06:04:45;9.50;60.90
2749;DHT22;1382;52.142;11.618;2023-12-20T06:07:13;9.40;60.90
2749;DHT22;1382;52.142;11.618;2023-12-20T06:09:42;9.40;61.00
2749;DHT22;1382;52.142;11.618;2023-12-20T06:12:09;9.40;61.10
2749;DHT22;1382;52.142;11.618;2023-12-20T06:14:36;9.40;61.00
2749;DHT22;1382;52.142;11.618;2023-12-20T06:17:03;9.40;61.00
2749;DHT22;1382;52.142;11.618;2023-12-20T06:19:30;9.40;61.00
2749;DHT22;1382;52.142;11.618;2023-12-20T06:21:57;9.40;61.00
2749;DHT22;1382;52.142;11.618;2023-12-20T06:24:25;9.40;61.00
2749;DHT22;1382;52.142;11.618;2023-12-20T06:26:52;9.40;61.00
2749;DHT22;1382;52.142;11.618;2023-12-20T06:29:19;9.50;61.00
2749;DHT22;1382;52.142;11.618;2023-12-20T06:31:45;9.40;60.80
2749;DHT22;1382;52.142;11.618;2023-12-20T06:34:12;9.50;61.00
2749;DHT22;1382;52.142;11.618;2023-12-20T06:36:40;9.40;60.80
2749;DHT22;1382;52.142;11.618;2023-12-20T06:39:06;9.50;60.80
2749;DHT22;1382;52.142;11.618;2023-12-20T06:41:35;9.50;60.70
2749;DHT22;1382;52.142;11.618;2023-12-20T06:44:02;9.50;60.70
2749;DHT22;1382;52.142;11.618;2023-12-20T06:46:29;9.40;60.50
2749;DHT22;1382;52.142;11.618;2023-12-20T06:48:55;9.50;60.50
2749;DHT22;1382;52.142;11.618;2023-12-20T06:51:22;9.50;60.50
2749;DHT22;1382;52.142;11.618;2023-12-20T06:53:49;9.50;60.40
2749;DHT22;1382;52.142;11.618;2023-12-20T06:56:16;9.50;60.40
2749;DHT22;1382;52.142;11.618;2023-12-20T06:58:47;9.50;60.20
2749;DHT22;1382;52.142;11.618;2023-12-20T07:01:14;9.70;60.30
2749;DHT22;1382;52.142;11.618;2023-12-20T07:03:41;9.70;60.30
2749;DHT22;1382;52.142;11.618;2023-12-20T07:06:08;9.50;60.70
2749;DHT22;1382;52.142;11.618;2023-12-20T07:08:35;9.50;60.00
2749;DHT22;1382;52.142;11.618;2023-12-20T07:11:02;9.60;60.10
2749;DHT22;1382;52.142;11.618;2023-12-20T07:13:30;9.60;60.10
2749;DHT22;1382;52.142;11.618;2023-12-20T07:15:58;9.60;60.20
2749;DHT22;1382;52.142;11.618;2023-12-20T07:18:25;9.60;60.20
2749;DHT22;1382;52.142;11.618;2023-12-20T07:20:52;9.60;60.10
2749;DHT22;1382;52.142;11.618;2023-12-20T07:23:19;9.60;60.00
2749;DHT22;1382;52.142;11.618;2023-12-20T07:25:46;9.70;60.10
2749;DHT22;1382;52.142;11.618;2023-12-20T07:28:13;9.70;60.10
2749;DHT22;1382;52.142;11.618;2023-12-20T07:30:40;9.70;60.10
2749;DHT22;1382;52.142;11.618;2023-12-20T07:33:09;9.60;60.00
2749;DHT22;1382;52.142;11.618;2023-12-20T07:35:37;9.70;60.10
2749;DHT22;1382;52.142;11.618;2023-12-20T07:38:05;9.80;60.30
2749;DHT22;1382;52.142;11.618;2023-12-20T07:40:43;9.70;60.10
2749;DHT22;1382;52.142;11.618;2023-12-20T07:43:19;9.90;60.20
2749;DHT22;1382;52.142;11.618;2023-12-20T07:45:46;9.90;60.30
2749;DHT22;1382;52.142;11.618;2023-12-20T07:48:14;9.90;60.20
2749;DHT22;1382;52.142;11.618;2023-12-20T07:50:41;9.90;60.20
2749;DHT22;1382;52.142;11.618;2023-12-20T07:53:08;9.70;60.10
2749;DHT22;1382;52.142;11.618;2023-12-20T07:55:37;9.90;60.30
2749;DHT22;1382;52.142;11.618;2023-12-20T07:58:04;9.60;60.00
2749;DHT22;1382;52.142;11.618;2023-12-20T08:00:31;9.80;60.20
2749;DHT22;1382;52.142;11.618;2023-12-20T08:02:58;9.80;60.20
2749;DHT22;1382;52.142;11.618;2023-12-20T08:05:26;9.70;60.20
2749;DHT22;1382;52.142;11.618;2023-12-20T08:07:53;9.70;60.30
2749;DHT22;1382;52.142;11.618;2023-12-20T08:10:20;9.70;60.40
2749;DHT22;1382;52.142;11.618;2023-12-20T08:12:47;9.90;60.50
2749;DHT22;1382;52.142;11.618;2023-12-20T08:15:14;9.80;60.40
2749;DHT22;1382;52.142;11.618;2023-12-20T08:17:40;9.80;60.30
2749;DHT22;1382;52.142;11.618;2023-12-20T08:20:08;9.80;60.40
2749;DHT22;1382;52.142;11.618;2023-12-20T08:22:37;9.80;60.60
2749;DHT22;1382;52.142;11.618;2023-12-20T08:25:04;9.80;60.60
2749;DHT22;1382;52.142;11.618;2023-12-20T08:27:31;9.80;60.60
2749;DHT22;1382;52.142;11.618;2023-12-20T08:29:58;9.80;60.70
2749;DHT22;1382;52.142;11.618;2023-12-20T08:32:25;10.00;59.80
2749;DHT22;1382;52.142;11.618;2023-12-20T08:34:52;10.00;59.80
2749;DHT22;1382;52.142;11.618;2023-12-20T08:37:19;9.90;60.60
2749;DHT22;1382;52.142;11.618;2023-12-20T08:39:47;9.90;60.50
2749;DHT22;1382;52.142;11.618;2023-12-20T08:42:14;10.00;59.40
2749;DHT22;1382;52.142;11.618;2023-12-20T08:44:41;10.20;59.50
2749;DHT22;1382;52.142;11.618;2023-12-20T08:47:08;10.00;59.40
2749;DHT22;1382;52.142;11.618;2023-12-20T08:49:35;10.00;59.40
2749;DHT22;1382;52.142;11.618;2023-12-20T08:52:02;10.00;59.30
2749;DHT22;1382;52.142;11.618;2023-12-20T08:54:29;10.00;59.10
2749;DHT22;1382;52.142;11.618;2023-12-20T08:56:58;10.00;59.10
2749;DHT22;1382;52.142;11.618;2023-12-20T08:59:25;10.10;59.10
2749;DHT22;1382;52.142;11.618;2023-12-20T09:01:52;10.10;59.00
2749;DHT22;1382;52.142;11.618;2023-12-20T09:04:19;10.10;59.00
2749;DHT22;1382;52.142;11.618;2023-12-20T09:06:46;10.30;59.10
2749;DHT22;1382;52.142;11.618;2023-12-20T09:09:13;10.10;59.00
2749;DHT22;1382;52.142;11.618;2023-12-20T09:11:40;10.20;59.00
2749;DHT22;1382;52.142;11.618;2023-12-20T09:14:08;10.20;59.00
2749;DHT22;1382;52.142;11.618;2023-12-20T09:16:35;10.30;59.10
2749;DHT22;1382;52.142;11.618;2023-12-20T09:19:02;10.30;59.10
2749;DHT22;1382;52.142;11.618;2023-12-20T09:21:30;10.30;59.10
2749;DHT22;1382;52.142;11.618;2023-12-20T09:23:59;10.40;59.20
2749;DHT22;1382;52.142;11.618;2023-12-20T09:26:28;10.40;59.00
2749;DHT22;1382;52.142;11.618;2023-12-20T09:28:57;10.60;59.20
2749;DHT22;1382;52.142;11.618;2023-12-20T09:31:25;10.40;58.80
2749;DHT22;1382;52.142;11.618;2023-12-20T09:33:52;10.50;58.80
2749;DHT22;1382;52.142;11.618;2023-12-20T09:36:19;10.50;58.60
2749;DHT22;1382;52.142;11.618;2023-12-20T09:38:46;10.50;58.40
2749;DHT22;1382;52.142;11.618;2023-12-20T09:41:13;10.50;58.50
2749;DHT22;1382;52.142;11.618;2023-12-20T09:43:41;10.50;58.50
2749;DHT22;1382;52.142;11.618;2023-12-20T09:46:10;10.60;58.30
2749;DHT22;1382;52.142;11.618;2023-12-20T09:48:41;10.80;58.60
2749;DHT22;1382;52.142;11.618;2023-12-20T09:51:08;10.60;58.20
2749;DHT22;1382;52.142;11.618;2023-12-20T09:53:35;10.60;58.00
2749;DHT22;1382;52.142;11.618;2023-12-20T09:56:04;10.70;58.00
2749;DHT22;1382;52.142;11.618;2023-12-20T09:58:32;10.70;58.10
2749;DHT22;1382;52.142;11.618;2023-12-20T10:00:59;10.70;58.10
2749;DHT22;1382;52.142;11.618;2023-12-20T10:03:27;10.80;58.00
2749;DHT22;1382;52.142;11.618;2023-12-20T10:05:57;10.80;58.00
2749;DHT22;1382;52.142;11.618;2023-12-20T10:08:24;10.90;57.40
2749;DHT22;1382;52.142;11.618;2023-12-20T10:10:52;10.90;57.50
2749;DHT22;1382;52.142;11.618;2023-12-20T10:13:19;10.90;57.20
2749;DHT22;1382;52.142;11.618;2023-12-20T10:15:46;11.10;57.10
2749;DHT22;1382;52.142;11.618;2023-12-20T10:18:13;10.90;56.90
2749;DHT22;1382;52.142;11.618;2023-12-20T10:20:41;11.10;57.70
2749;DHT22;1382;52.142;11.618;2023-12-20T10:23:11;11.00;57.60
2749;DHT22;1382;52.142;11.618;2023-12-20T10:25:39;11.00;57.50
2749;DHT22;1382;52.142;11.618;2023-12-20T10:28:10;11.00;57.40
2749;DHT22;1382;52.142;11.618;2023-12-20T10:30:37;11.00;57.30
2749;DHT22;1382;52.142;11.618;2023-12-20T10:33:05;11.10;57.50
2749;DHT22;1382;52.142;11.618;2023-12-20T10:35:32;11.10;57.40
2749;DHT22;1382;52.142;11.618;2023-12-20T10:38:03;11.10;56.80
2749;DHT22;1382;52.142;11.618;2023-12-20T10:40:32;11.10;56.90
2749;DHT22;1382;52.142;11.618;2023-12-20T10:43:01;11.10;56.40
2749;DHT22;1382;52.142;11.618;2023-12-20T10:45:41;11.10;56.60
2749;DHT22;1382;52.142;11.618;2023-12-20T10:48:10;11.10;56.60
2749;DHT22;1382;52.142;11.618;2023-12-20T10:50:38;11.20;56.90
2749;DHT22;1382;52.142;11.618;2023-12-20T10:53:06;11.10;56.80
2749;DHT22;1382;52.142;11.618;2023-12-20T10:55:35;11.20;57.40
2749;DHT22;1382;52.142;11.618;2023-12-20T10:58:07;11.40;57.00
2749;DHT22;1382;52.142;11.618;2023-12-20T11:00:39;11.20;56.90
2749;DHT22;1382;52.142;11.618;2023-12-20T11:03:09;11.20;56.70
2749;DHT22;1382;52.142;11.618;2023-12-20T11:05:40;11.20;56.40
2749;DHT22;1382;52.142;11.618;2023-12-20T11:08:16;11.20;56.60
2749;DHT22;1382;52.142;11.618;2023-12-20T11:10:51;11.20;57.00
2749;DHT22;1382;52.142;11.618;2023-12-20T11:13:23;11.30;56.50
2749;DHT22;1382;52.142;11.618;2023-12-20T11:15:52;11.20;56.30
2749;DHT22;1382;52.142;11.618;2023-12-20T11:18:20;11.20;56.60
2749;DHT22;1382;52.142;11.618;2023-12-20T11:20:54;11.20;56.50
2749;DHT22;1382;52.142;11.618;2023-12-20T11:23:21;11.20;56.50
2749;DHT22;1382;52.142;11.618;2023-12-20T11:25:53;11.20;56.50
2749;DHT22;1382;52.142;11.618;2023-12-20T11:28:22;11.20;56.50
2749;DHT22;1382;52.142;11.618;2023-12-20T11:30:51;11.40;56.90
2749;DHT22;1382;52.142;11.618;2023-12-20T11:33:21;11.20;56.40
2749;DHT22;1382;52.142;11.618;2023-12-20T11:35:50;11.20;56.60
2749;DHT22;1382;52.142;11.618;2023-12-20T11:38:19;11.20;56.40
2749;DHT22;1382;52.142;11.618;2023-12-20T11:40:49;11.20;56.60
2749;DHT22;1382;52.142;11.618;2023-12-20T11:43:29;11.20;57.00
2749;DHT22;1382;52.142;11.618;2023-12-20T11:46:02;11.40;56.40
2749;DHT22;1382;52.142;11.618;2023-12-20T11:48:49;11.40;56.60
2749;DHT22;1382;52.142;11.618;2023-12-20T11:51:17;11.30;56.20
2749;DHT22;1382;52.142;11.618;2023-12-20T11:53:44;11.40;56.60
2749;DHT22;1382;52.142;11.618;2023-12-20T11:56:12;11.20;56.80
2749;DHT22;1382;52.142;11.618;2023-12-20T11:58:39;11.20;56.90
2749;DHT22;1382;52.142;11.618;2023-12-20T12:01:06;11.20;57.00
2749;DHT22;1382;52.142;11.618;2023-12-20T12:03:37;11.30;56.80
2749;DHT22;1382;52.142;11.618;2023-12-20T12:06:04;11.50;57.10
2749;DHT22;1382;52.142;11.618;2023-12-20T12:08:32;11.30;57.30
2749;DHT22;1382;52.142;11.618;2023-12-20T12:11:04;11.50;57.30
2749;DHT22;1382;52.142;11.618;2023-12-20T12:13:35;11.40;56.80
2749;DHT22;1382;52.142;11.618;2023-12-20T12:16:04;11.40;57.10
2749;DHT22;1382;52.142;11.618;2023-12-20T12:18:31;11.40;57.60
2749;DHT22;1382;52.142;11.618;2023-12-20T12:21:03;11.30;57.50
2749;DHT22;1382;52.142;11.618;2023-12-20T12:23:41;11.40;57.50
2749;DHT22;1382;52.142;11.618;2023-12-20T12:26:07;11.50;57.80
2749;DHT22;1382;52.142;11.618;2023-12-20T12:28:36;11.50;57.40
2749;DHT22;1382;52.142;11.618;2023-12-20T12:31:03;11.40;57.50
2749;DHT22;1382;52.142;11.618;2023-12-20T12:33:30;11.40;57.50
2749;DHT22;1382;52.142;11.618;2023-12-20T12:35:58;11.40;57.50
2749;DHT22;1382;52.142;11.618;2023-12-20T12:38:25;11.40;57.60
2749;DHT22;1382;52.142;11.618;2023-12-20T12:40:51;11.40;57.50
2749;DHT22;1382;52.142;11.618;2023-12-20T12:43:20;11.40;57.80
2749;DHT22;1382;52.142;11.618;2023-12-20T12:45:51;11.40;57.70
2749;DHT22;1382;52.142;11.618;2023-12-20T12:48:18;11.40;57.90
2749;DHT22;1382;52.142;11.618;2023-12-20T12:50:46;11.40;57.80
2749;DHT22;1382;52.142;11.618;2023-12-20T12:53:12;11.40;57.90
2749;DHT22;1382;52.142;11.618;2023-12-20T12:55:39;11.40;57.90
2749;DHT22;1382;52.142;11.618;2023-12-20T12:58:06;11.30;58.00
2749;DHT22;1382;52.142;11.618;2023-12-20T13:00:33;11.30;58.20
2749;DHT22;1382;52.142;11.618;2023-12-20T13:03:01;11.30;58.30
2749;DHT22;1382;52.142;11.618;2023-12-20T13:05:29;11.30;58.30
2749;DHT22;1382;52.142;11.618;2023-12-20T13:08:06;11.30;58.40
2749;DHT22;1382;52.142;11.618;2023-12-20T13:10:33;11.30;58.50
2749;DHT22;1382;52.142;11.618;2023-12-20T13:13:00;11.00;58.40
2749;DHT22;1382;52.142;11.618;2023-12-20T13:15:27;11.20;58.70
2749;DHT22;1382;52.142;11.618;2023-12-20T13:17:54;11.20;58.80
2749;DHT22;1382;52.142;11.618;2023-12-20T13:20:22;11.20;58.70
2749;DHT22;1382;52.142;11.618;2023-12-20T13:22:49;11.20;58.80
2749;DHT22;1382;52.142;11.618;2023-12-20T13:25:16;11.10;58.90
2749;DHT22;1382;52.142;11.618;2023-12-20T13:27:43;11.10;59.10
2749;DHT22;1382;52.142;11.618;2023-12-20T13:30:10;11.10;59.10
2749;DHT22;1382;52.142;11.618;2023-12-20T13:32:37;11.10;59.20
2749;DHT22;1382;52.142;11.618;2023-12-20T13:35:05;11.10;59.20
2749;DHT22;1382;52.142;11.618;2023-12-20T13:37:33;11.10;59.20
2749;DHT22;1382;52.142;11.618;2023-12-20T13:40:00;11.00;59.10
2749;DHT22;1382;52.142;11.618;2023-12-20T13:42:27;11.00;59.00
2749;DHT22;1382;52.142;11.618;2023-12-20T13:44:54;11.00;58.90
2749;DHT22;1382;52.142;11.618;2023-12-20T13:47:21;11.00;58.80
2749;DHT22;1382;52.142;11.618;2023-12-20T13:49:50;11.00;58.70
2749;DHT22;1382;52.142;11.618;2023-12-20T13:52:17;11.00;58.80
2749;DHT22;1382;52.142;11.618;2023-12-20T13:54:46;10.90;59.00
2749;DHT22;1382;52.142;11.618;2023-12-20T13:57:12;10.90;58.70
2749;DHT22;1382;52.142;11.618;2023-12-20T13:59:57;10.90;58.50
2749;DHT22;1382;52.142;11.618;2023-12-20T14:02:24;10.90;58.50
2749;DHT22;1382;52.142;11.618;2023-12-20T14:04:51;10.90;58.50
2749;DHT22;1382;52.142;11.618;2023-12-20T14:07:18;10.90;58.20
2749;DHT22;1382;52.142;11.618;2023-12-20T14:09:46;10.90;58.00
2749;DHT22;1382;52.142;11.618;2023-12-20T14:12:14;10.90;58.20
2749;DHT22;1382;52.142;11.618;2023-12-20T14:14:40;10.80;57.90
2749;DHT22;1382;52.142;11.618;2023-12-20T14:17:07;10.90;57.70
2749;DHT22;1382;52.142;11.618;2023-12-20T14:19:34;10.90;57.10
2749;DHT22;1382;52.142;11.618;2023-12-20T14:22:01;10.80;56.70
2749;DHT22;1382;52.142;11.618;2023-12-20T14:24:28;10.80;56.70
2749;DHT22;1382;52.142;11.618;2023-12-20T14:26:56;10.70;56.70
2749;DHT22;1382;52.142;11.618;2023-12-20T14:29:24;10.80;56.70
2749;DHT22;1382;52.142;11.618;2023-12-20T14:31:53;10.70;56.70
2749;DHT22;1382;52.142;11.618;2023-12-20T14:34:19;10.70;56.10
2749;DHT22;1382;52.142;11.618;2023-12-20T14:36:48;10.70;55.60
2749;DHT22;1382;52.142;11.618;2023-12-20T14:39:15;10.70;55.40
2749;DHT22;1382;52.142;11.618;2023-12-20T14:41:42;10.90;55.80
2749;DHT22;1382;52.142;11.618;2023-12-20T14:44:11;10.80;56.30
2749;DHT22;1382;52.142;11.618;2023-12-20T14:46:40;10.60;55.60
2749;DHT22;1382;52.142;11.618;2023-12-20T14:49:08;10.60;55.50
2749;DHT22;1382;52.142;11.618;2023-12-20T14:51:35;10.50;55.40
2749;DHT22;1382;52.142;11.618;2023-12-20T14:54:05;10.50;55.60
2749;DHT22;1382;52.142;11.618;2023-12-20T14:56:32;10.60;55.50
2749;DHT22;1382;52.142;11.618;2023-12-20T14:58:59;10.40;55.90
2749;DHT22;1382;52.142;11.618;2023-12-20T15:01:30;10.40;55.40
2749;DHT22;1382;52.142;11.618;2023-12-20T15:03:57;10.40;55.80
2749;DHT22;1382;52.142;11.618;2023-12-20T15:06:24;10.40;55.80
2749;DHT22;1382;52.142;11.618;2023-12-20T15:08:54;10.40;55.30
2749;DHT22;1382;52.142;11.618;2023-12-20T15:11:21;10.30;55.40
2749;DHT22;1382;52.142;11.618;2023-12-20T15:13:48;10.40;55.60
2749;DHT22;1382;52.142;11.618;2023-12-20T15:16:15;10.30;54.90
2749;DHT22;1382;52.142;11.618;2023-12-20T15:18:43;10.30;55.40
2749;DHT22;1382;52.142;11.618;2023-12-20T15:21:10;10.30;55.70
2749;DHT22;1382;52.142;11.618;2023-12-20T15:23:37;10.30;56.40
2749;DHT22;1382;52.142;11.618;2023-12-20T15:26:04;10.30;55.80
2749;DHT22;1382;52.142;11.618;2023-12-20T15:28:31;10.30;56.00
2749;DHT22;1382;52.142;11.618;2023-12-20T15:30:58;10.30;55.90
2749;DHT22;1382;52.142;11.618;2023-12-20T15:33:25;10.50;56.10
2749;DHT22;1382;52.142;11.618;2023-12-20T15:35:53;10.30;55.80
2749;DHT22;1382;52.142;11.618;2023-12-20T15:38:20;10.30;55.70
2749;DHT22;1382;52.142;11.618;2023-12-20T15:40:47;10.30;55.70
2749;DHT22;1382;52.142;11.618;2023-12-20T15:43:14;10.20;55.60
2749;DHT22;1382;52.142;11.618;2023-12-20T15:45:41;10.20;55.80
2749;DHT22;1382;52.142;11.618;2023-12-20T15:48:07;10.30;55.90
2749;DHT22;1382;52.142;11.618;2023-12-20T15:51:04;10.20;55.60
2749;DHT22;1382;52.142;11.618;2023-12-20T15:53:36;10.10;56.60